Terminal Aerodrome Forecast
Issued by NWS Cleveland, OH

Home | Current Version | Previous Version | Graphics & Text | Print | Product List | Glossary On
Versions: 1 2 3 4 5 6 7 8 9 10 11 12 13 14 15 16
670
FTUS41 KCLE 051303 AAA
TAFYNG
TAF AMD
KYNG 051303Z 0513/0612 27010KT P6SM SCT012 OVC020
     FM051800 24010KT P6SM SCT015 OVC025
     FM060100 VRB04KT P6SM SCT025 BKN200
     FM060900 09008KT P6SM SCT100 OVC200=

USA.gov is the U.S. government's official web portal to all federal, state and local government web resources and services.